Flight Track Log - Related Links

Times and Time Zones

All times are in EDT time to prevent confusion due to time zone crossing. See the SWA3625 flight status page for this flight to view local times or setup timezone preferences in your user account.

Time Position Orientation Groundspeed Altitude Reporting Facility
EDT Latitude Longitude Course Direction KTS MPH feet Rate Location/Type
Tue 12:34:01 AM 36.0756 -115.1658 269° West 146 168 3,200  Level Los Angeles Center
Tue 12:34:56 AM 36.0747 -115.2219 269° West 190 219 4,600 1,623 Climbing Los Angeles Center
Tue 12:36:03 AM 36.0239 -115.2758 221° Southwest 264 304 6,500 2,194 Climbing Los Angeles Center
Tue 12:37:10 AM 35.9511 -115.2386 158° South 300 345 9,500 2,158 Climbing Los Angeles Center
Tue 12:38:22 AM 35.8817 -115.1461 133° Southeast 310 357 11,500 2,120 Climbing Los Angeles Center
Tue 12:39:23 AM 35.8722 -115.0136 95° East 363 418 14,200 2,683 Climbing Los Angeles Center
Tue 12:40:25 AM 35.8669 -114.8683 93° East 402 463 17,000 2,878 Climbing Los Angeles Center
Tue 12:41:26 AM 35.8614 -114.7181 93° East 437 503 20,100 2,852 Climbing Los Angeles Center
Tue 12:42:27 AM 35.8417 -114.5661 99° East 454 522 22,800 2,732 Climbing Los Angeles Center
Tue 12:43:29 AM 35.7581 -114.4061 123° Southeast 461 531 25,700 2,732 Climbing Los Angeles Center
Tue 12:44:30 AM 35.6869 -114.2761 124° Southeast 459 528 28,400 1,623 Climbing Los Angeles Center
Tue 12:45:31 AM 35.6200 -114.1536 124° Southeast 469 540 29,000 295 Climbing Los Angeles Center
Tue 12:46:32 AM 35.5481 -114.0192 123° Southeast 475 547 29,000  Level Los Angeles Center
Tue 12:47:34 AM 35.4764 -113.8864 124° Southeast 473 544 29,000  Level Los Angeles Center
Tue 12:48:35 AM 35.3908 -113.7283 124° Southeast 469 540 29,000  Level Los Angeles Center
Tue 12:49:36 AM 35.3206 -113.5986 124° Southeast 463 533 29,000  Level Los Angeles Center
Tue 12:50:38 AM 35.2503 -113.4686 123° Southeast 463 533 29,000  Level Los Angeles Center
Tue 12:51:39 AM 35.1803 -113.3411 124° Southeast 459 528 29,000  Level Los Angeles Center
Tue 12:52:29 AM 35.1239 -113.2397 124° Southeast 459 528 29,000  Level Albuquerque Center
Tue 12:53:29 AM 35.0556 -113.1125 123° Southeast 457 526 29,000  Level Albuquerque Center
Tue 12:54:30 AM 34.9617 -112.9711 129° Southeast 448 516 29,000  Level Albuquerque Center
Tue 12:55:31 AM 34.8606 -112.8742 142° Southeast 459 528 29,000  Level Albuquerque Center
Tue 12:56:32 AM 34.7564 -112.7739 142° Southeast 474 545 29,000 -49 Level Albuquerque Center
Tue 12:57:33 AM 34.6519 -112.6731 142° Southeast 480 552 28,900 -1,279 Descending Albuquerque Center
Tue 12:58:34 AM 34.5489 -112.5750 142° Southeast 477 549 26,400 -2,579 Descending Albuquerque Center
Tue 12:59:34 AM 34.4444 -112.4756 142° Southeast 459 528 23,700 -2,579 Descending Albuquerque Center
Tue 01:00:35 AM 34.3486 -112.3858 142° Southeast 443 510 21,200 -2,410 Descending Albuquerque Center
Tue 01:01:36 AM 34.2581 -112.2986 141° Southeast 424 488 18,800 -2,361 Descending Albuquerque Center
Tue 01:02:37 AM 34.1706 -112.2164 142° Southeast 404 465 16,400 -1,426 Descending Albuquerque Center
Tue 01:03:38 AM 34.0872 -112.1417 143° Southeast 379 436 15,900 -885 Descending Albuquerque Center
Tue 01:04:39 AM 33.9858 -112.1100 165° South 377 434 14,600 -1,785 Descending Albuquerque Center
Tue 01:05:39 AM 33.8867 -112.0856 168° South 369 425 12,300 -2,182 Descending Albuquerque Center
Tue 01:06:40 AM 33.7906 -112.0608 168° South 359 413 10,200 -1,131 Descending Albuquerque Center
Tue 01:07:41 AM 33.6861 -112.0400 171° South 315 362 10,000 -541 Descending Albuquerque Center
Tue 01:08:42 AM 33.6089 -112.0269 172° South 284 327 9,100 -885 Descending Albuquerque Center
Tue 01:09:43 AM 33.5453 -111.9964 158° South 253 291 8,200 -1,082 Descending Albuquerque Center
Tue 01:10:44 AM 33.5275 -111.9172 105° East 260 299 6,900 -1,279 Descending Albuquerque Center
Tue 01:11:45 AM 33.5258 -111.8339 91° East 253 291 5,600 -1,190 Descending Albuquerque Center
Tue 01:12:45 AM 33.4669 -111.8158 166° South 230 265 4,500 -942 Descending Albuquerque Center
Tue 01:13:46 AM 33.4403 -111.8642 237° Southwest 169 194 3,700 -1,034 Descending Albuquerque Center
Tue 01:14:41 AM 33.4333 -111.9167 261° West 141 162 2,500 -1,046 Descending Phoenix TRACON
Tue 01:15:35 AM 33.4333 -111.9500 270° West 129 148 1,800 -778 Descending Phoenix TRACON

Login

Don't have an account? Register now (free) for customized features, flight alerts, and more!